EGOM - Spadeadam
Distance from station: E 5mi, 14km
Updated: 12/12/2017 3:50am
Mostly Cloudy
Mostly Cloudy
 Wind from WSW
Wind: WSW 9 mph , 15 km/h
Temperature: 32°F , 0°C
Wind Chill: 24°F , -4°C
Dew Point: 30°F , -1°C
Humidity: 93%
Barometer: 29.56 inHg , 1001 hPa
Clouds: Mostly Cloudy
Visibility: 6 miles , 10 km
Cloud details: Few Clouds 1200 ft
Mostly Cloudy 22000 ft
2017/12/12 11:50 EGOM 121150Z 25008KT 9999 FEW012 BKN220 M00/M01 Q1001 BLU